Weathercam Coevorden Meer informatie Weathercam Coevorden



Het weer levert geen direct gevaar op.    Er zijn geen waarschuwingen afgegeven.

Select another period ( hide this area )

Eenheden Periode Custom range Directly to
Metrisch Engels Beide
Dagelijkse Wekelijkse Maandelijkse Jaarlijkse
use both date-selectors for a custom range
previous Dag
With this date

WeatherUnderground graphs for this period ( click here )


Dagelijkse Samenvatting Maandag 27 januari 2020
Tijd Temp. ( °C ) Dew pt. ( °C ) Wind ( km/h ) van Windvlaag ( km/h ) Luchtdruk ( hPa ) Humid.( % ) Rainrate ( cm )
Hoog8,7 6,9 28,0 ZO ( 1130/2314 ) 28,0 1013,8 90 1,50
Gemiddeld7,1 5,2 13,9 ZO #74/166 15,1 1010,8 88 1,70
Laag6,4 4,1 4,7   4,7 1008,4 84 -
Dagelijkse Tabular details for Maandag 27 januari 2020
Tijd Temp. ( °C ) Dew pt. ( °C ) Wind ( km/h ) van Windvlaag ( km/h ) Luchtdruk ( hPa ) Humid.( % ) Rainrate ( cm )
00:01 6,8 4,3 7,6 ZZO 7,6 1013,8 84 -
00:05 6,8 4,3 13,7 ZZO 13,7 1013,8 84 -
00:11 6,8 4,3 13,4 ZO 18,7 1013,8 84 -
00:15 6,8 4,3 13,7 ZO 17,2 1013,4 84 -
00:21 6,8 4,3 16,3 ZZO 16,3 1013,4 84 -
00:25 6,9 4,4 16,6 OZO 16,6 1013,4 84 -
00:31 6,9 4,4 15,8 ZO 15,8 1013,4 84 -
00:35 6,9 4,4 17,7 ZZO 17,7 1013,1 84 -
00:41 6,9 4,4 11,6 OZO 15,8 1013,1 84 -
00:45 6,9 4,4 24,1 ZZO 24,1 1013,1 84 -
00:51 6,9 4,4 25,3 Zuiden 25,3 1013,1 84 -
00:55 6,9 4,4 17,7 ZZO 24,1 1013,1 84 -
01:01 6,9 4,4 14,3 ZO 22,7 1013,1 84 -
01:05 6,9 4,4 13,4 OZO 21,6 1013,1 84 -
01:11 6,8 4,3 12,2 OZO 12,2 1013,1 84 -
01:15 6,8 4,3 10,8 ZZO 17,2 1013,1 84 -
01:21 6,8 4,3 17,7 OZO 25,6 1013,1 84 -
01:25 6,8 4,3 10,8 Oosten 18,0 1013,1 84 -
01:31 6,8 4,3 15,4 ZO 15,4 1013,1 84 -
01:35 6,7 4,2 17,2 ZO 17,2 1012,8 84 -
01:41 6,7 4,2 14,0 ZO 14,0 1012,8 84 -
01:45 6,7 4,4 21,6 ZO 21,6 1012,8 85 -
01:51 6,6 4,3 21,2 Zuiden 21,2 1012,8 85 -
01:55 6,6 4,3 24,1 ZO 24,1 1012,1 85 -
02:01 6,5 4,2 18,3 ZO 25,6 1012,1 85 -
02:05 6,5 4,2 24,5 ZO 24,5 1012,1 85 -
02:11 6,4 4,1 13,4 ZO 13,4 1012,1 85 -
02:15 6,4 4,2 15,1 ZO 15,1 1012,1 86 -
02:21 6,4 4,2 12,6 ZO 14,8 1012,1 86 -
02:25 6,4 4,2 9,3 ZO 16,3 1012,1 86 -
02:31 6,4 4,2 20,1 ZO 20,1 1012,1 86 -
02:35 6,4 4,2 12,6 OZO 18,3 1012,1 86 -
02:41 6,4 4,2 11,1 ZO 14,0 1012,1 86 -
02:45 6,4 4,2 13,7 ZZO 14,8 1012,1 86 -
02:51 6,4 4,2 15,1 ZO 15,1 1012,1 86 -
02:55 6,4 4,2 19,1 ZO 19,1 1011,7 86 -
03:02 6,4 4,2 28,0 ZO 28,0 1011,7 86 -
03:06 6,5 4,3 25,3 ZO 25,3 1011,7 86 -
03:10 6,5 4,3 19,1 ZZO 19,1 1011,7 86 -
03:16 6,5 4,3 16,3 ZO 16,3 1011,7 86 -
03:20 6,5 4,3 19,1 ZZO 19,1 1011,7 86 -
03:26 6,6 4,4 20,9 ZZO 20,9 1011,7 86 -
03:30 6,6 4,4 15,1 ZO 15,1 1011,7 86 -
03:36 6,6 4,4 20,1 ZO 20,1 1011,4 86 -
03:40 6,7 4,5 13,0 ZO 13,0 1011,4 86 -
03:46 6,6 4,4 17,2 ZO 19,5 1011,4 86 -
03:50 6,6 4,4 21,2 Zuiden 21,2 1011,4 86 -
03:56 6,6 4,4 13,7 ZO 13,7 1011,4 86 -
04:00 6,6 4,4 18,0 ZO 18,0 1011,4 86 -
04:06 6,6 4,4 26,7 ZZO 26,7 1011,4 86 -
04:10 6,7 4,5 15,4 ZZO 15,4 1011,4 86 -
04:16 6,6 4,4 24,8 ZO 24,8 1011,1 86 0,80
04:20 6,6 4,4 9,3 OZO 9,3 1011,1 86 0,80
04:26 6,5 4,3 16,6 ZO 16,6 1011,1 86 0,80
04:30 6,5 4,5 6,1 OZO 18,0 1011,1 87 0,80
04:36 6,5 4,5 15,1 OZO 15,1 1011,1 87 1,50
04:40 6,5 4,5 17,7 ZZO 17,7 1011,1 87 1,50
04:46 6,5 4,5 26,2 ZO 26,2 1011,1 87 1,50
04:50 6,5 4,5 13,4 OZO 13,4 1011,1 87 1,50
04:56 6,5 4,5 9,3 ZZO 9,3 1010,7 87 1,50
05:00 6,5 4,7 11,1 Zuiden 11,1 1010,7 88 1,50
05:06 6,5 4,7 8,7 ZW 8,7 1010,7 88 1,50
05:10 6,5 4,7 16,3 ZO 16,3 1010,7 88 1,50
05:16 6,5 4,7 21,6 ZO 21,6 1010,7 88 0,80
05:20 6,5 4,7 13,7 ZZO 13,7 1010,7 88 0,80
05:26 6,5 4,7 21,2 ZO 21,2 1010,7 88 0,80
05:30 6,4 4,6 14,3 ZZO 14,3 1010,7 88 1,50
05:36 6,4 4,6 21,6 ZO 21,6 1010,7 88 0,80
05:40 6,4 4,6 16,6 ZO 16,6 1010,7 88 0,80
05:46 6,4 4,6 8,7 Zuiden 8,7 1010,7 88 0,80
05:50 6,4 4,6 15,8 ZO 15,8 1010,7 88 0,80
05:56 6,4 4,7 12,6 ZZO 12,6 1010,7 89 0,80
06:00 6,4 4,7 13,7 ZZO 13,7 1010,7 89 0,80
06:06 6,4 4,7 17,7 ZZO 22,4 1010,7 89 0,80
06:10 6,4 4,7 6,1 OZO 6,1 1010,7 89 0,80
06:16 6,4 4,7 16,3 ZZO 16,3 1010,4 89 0,80
06:20 6,4 4,7 14,8 ZO 14,8 1010,4 89 0,80
06:26 6,4 4,7 20,6 ZO 20,6 1010,4 89 -
06:30 6,4 4,7 15,1 ZO 15,1 1010,4 89 -
06:36 6,5 4,8 15,4 Zuiden 15,4 1010,4 89 -
06:40 6,5 4,8 10,5 ZZO 10,5 1010,4 89 -
06:46 6,5 4,8 15,4 ZO 15,4 1010,4 89 -
06:50 6,6 4,9 14,8 ZO 14,8 1010,4 89 -
06:56 6,6 4,9 8,7 ZO 8,7 1010,4 89 -
07:00 6,6 4,9 13,7 ZO 13,7 1010,4 89 -
07:06 6,6 4,9 13,7 Zuiden 13,7 1010,4 89 -
07:10 6,7 5,2 7,9 ZZO 7,9 1010,4 90 -
07:16 6,7 5,2 14,3 Oosten 14,3 1010,4 90 0,80
07:20 6,7 5,2 8,7 ZZO 8,7 1010,4 90 0,80
07:26 6,8 5,3 7,9 Zuiden 14,8 1010,4 90 0,80
07:30 6,8 5,3 11,1 ZZO 14,0 1010,4 90 0,80
07:36 6,8 5,3 9,0 Zuiden 9,0 1010,0 90 0,80
07:41 6,8 5,3 14,0 ZZO 14,0 1010,0 90 0,80
07:45 6,8 5,3 12,2 ZZO 15,4 1010,0 90 0,80
07:51 6,9 5,4 17,2 ZZO 17,2 1010,0 90 0,80
07:55 6,9 5,4 17,2 ZO 17,2 1010,0 90 0,80
08:01 6,9 5,4 6,1 ZO 12,2 1010,0 90 0,80
08:05 6,9 5,4 14,8 ZZO 14,8 1010,0 90 1,50
08:11 6,9 5,4 13,7 WZW 13,7 1010,0 90 0,80
08:16 6,9 5,4 10,5 ZO 10,5 1010,0 90 0,80
08:20 6,9 5,4 11,6 Zuiden 11,6 1010,0 90 0,80
08:26 7,0 5,5 9,7 OZO 12,6 1010,0 90 0,80
08:30 7,0 5,5 13,4 Zuiden 13,4 1010,0 90 0,80
08:36 7,1 5,6 18,7 ZO 18,7 1010,4 90 0,80
08:40 7,1 5,6 19,1 ZO 19,1 1010,4 90 0,80
08:45 7,1 5,6 10,8 ZO 18,7 1010,4 90 0,80
08:51 7,1 5,6 12,6 ZZO 12,6 1010,4 90 0,80
08:55 7,1 5,6 16,6 ZO 16,6 1010,4 90 0,80
09:01 7,1 5,6 16,9 ZO 16,9 1010,4 90 0,80
09:05 7,2 5,7 8,7 Zuiden 8,7 1010,4 90 -
09:10 7,2 5,7 12,2 ZO 12,2 1010,4 90 -
09:16 7,2 5,7 6,1 ZO 6,1 1010,0 90 -
09:20 7,2 5,7 5,5 Zuiden 5,5 1010,0 90 -
09:26 7,2 5,7 12,2 Oosten 12,2 1010,0 90 -
09:30 7,3 5,8 14,8 ZO 14,8 1010,0 90 -
09:36 7,3 5,8 11,6 ZZO 11,6 1010,0 90 -
09:40 7,3 5,8 7,6 ZZO 7,6 1010,0 90 -
09:46 7,4 5,9 9,7 Zuiden 9,7 1010,0 90 -
09:50 7,4 5,9 7,6 Zuiden 7,6 1010,0 90 -
09:56 7,4 5,9 13,7 ZZO 18,3 1010,0 90 -
10:00 7,4 5,9 7,2 ZZO 7,2 1010,0 90 -
10:06 7,4 5,9 16,6 ZZW 16,6 1010,0 90 -
10:10 7,5 6,0 15,8 Zuiden 15,8 1010,0 90 -
10:16 7,5 6,0 12,6 ZZO 12,6 1010,0 90 -
10:21 7,5 6,0 9,3 Zuiden 9,3 1010,0 90 -
10:25 7,5 6,0 12,2 Zuiden 15,4 1010,0 90 -
10:31 7,6 6,1 10,8 Zuiden 14,8 1010,0 90 -
10:35 7,6 6,1 10,8 ZO 14,8 1010,0 90 -
10:41 7,6 6,1 12,2 ZZO 12,2 1010,0 90 -
10:45 7,7 6,2 12,6 ZZO 19,1 1010,0 90 -
10:51 7,7 6,2 10,8 Oosten 27,4 1010,0 90 -
10:55 7,8 6,3 20,6 Zuiden 20,6 1010,0 90 -
11:01 7,8 6,3 9,3 ZO 9,7 1010,0 90 -
11:05 7,8 6,3 11,6 ZO 13,4 1010,0 90 -
11:11 7,8 6,3 13,4 ZO 13,4 1010,0 90 -
11:15 7,8 6,3 8,2 ZO 13,7 1010,0 90 0,50
11:21 7,8 6,3 10,8 ZZO 10,8 1010,0 90 0,50
11:26 7,9 6,4 9,7 ZZO 19,5 1010,0 90 0,50
11:30 7,9 6,4 11,1 ZO 11,1 1010,0 90 0,50
11:36 7,9 6,4 11,6 OZO 11,6 1009,7 90 0,50
11:40 7,9 6,4 17,2 ZO 17,2 1009,7 90 0,50
11:46 7,9 6,4 11,1 ZO 11,1 1009,7 90 0,50
11:50 7,9 6,4 10,1 ZO 10,1 1009,7 90 0,50
11:56 8,0 6,5 7,2 ZZO 7,2 1009,4 90 0,50
12:00 8,0 6,5 8,7 ZO 8,7 1009,4 90 0,50
12:06 8,1 6,6 9,3 ZZO 9,3 1009,4 90 0,50
12:10 8,1 6,6 11,9 ZZO 11,9 1009,4 90 -
12:16 8,2 6,7 12,6 ZO 12,6 1009,4 90 -
12:20 8,2 6,5 7,6 ZO 7,6 1009,4 89 -
12:26 8,3 6,6 14,8 OZO 14,8 1009,4 89 -
12:30 8,3 6,6 11,1 ZO 11,1 1009,4 89 -
12:36 8,4 6,7 9,0 ZZO 9,0 1008,7 89 -
12:40 8,4 6,7 4,7 OZO 4,7 1008,7 89 -
12:46 8,5 6,8 9,0 ZZO 9,0 1008,7 89 -
12:50 8,5 6,8 6,9 ZO 6,9 1008,7 89 -
12:56 8,6 6,9 13,4 ZO 14,3 1008,7 89 -
13:00 8,5 6,6 14,0 ZO 14,0 1008,7 88 -
13:06 8,5 6,6 13,4 ZZO 13,4 1008,7 88 -
13:10 8,5 6,6 12,6 ZO 12,6 1008,7 88 -
13:16 8,6 6,7 14,8 ZO 14,8 1008,7 88 -
13:20 8,6 6,7 9,0 Zuiden 9,0 1008,7 88 -
13:26 8,6 6,7 18,0 ZO 18,0 1008,7 88 -
13:30 8,6 6,7 19,1 ZZO 19,1 1008,7 88 -
13:36 8,7 6,7 7,2 ONO 7,2 1008,4 87 -
13:40 8,6 6,6 13,7 Zuiden 13,7 1008,4 87 -
13:46 8,6 6,6 9,7 Zuiden 9,7 1008,4 87 -
Dagelijkse Samenvatting Maandag 27 januari 2020
Tijd Temp. ( °C ) Dew pt. ( °C ) Wind ( km/h ) van Windvlaag ( km/h ) Luchtdruk ( hPa ) Humid.( % ) Rainrate ( cm )
Hoog8,7 6,9 28,0 ZO ( 1130/2314 ) 28,0 1013,8 90 1,50
Gemiddeld7,1 5,2 13,9 ZO #74/166 15,1 1010,8 88 1,70
Laag6,4 4,1 4,7   4,7 1008,4 84 -
Dagelijkse Tabular details for Maandag 27 januari 2020
Tijd Temp. ( °C ) Dew pt. ( °C ) Wind ( km/h ) van Windvlaag ( km/h ) Luchtdruk ( hPa ) Humid.( % ) Rainrate ( cm )
00:01 6,8 4,3 7,6 ZZO 7,6 1013,8 84 -
00:05 6,8 4,3 13,7 ZZO 13,7 1013,8 84 -
00:11 6,8 4,3 13,4 ZO 18,7 1013,8 84 -
00:15 6,8 4,3 13,7 ZO 17,2 1013,4 84 -
00:21 6,8 4,3 16,3 ZZO 16,3 1013,4 84 -
00:25 6,9 4,4 16,6 OZO 16,6 1013,4 84 -
00:31 6,9 4,4 15,8 ZO 15,8 1013,4 84 -
00:35 6,9 4,4 17,7 ZZO 17,7 1013,1 84 -
00:41 6,9 4,4 11,6 OZO 15,8 1013,1 84 -
00:45 6,9 4,4 24,1 ZZO 24,1 1013,1 84 -
00:51 6,9 4,4 25,3 Zuiden 25,3 1013,1 84 -
00:55 6,9 4,4 17,7 ZZO 24,1 1013,1 84 -
01:01 6,9 4,4 14,3 ZO 22,7 1013,1 84 -
01:05 6,9 4,4 13,4 OZO 21,6 1013,1 84 -
01:11 6,8 4,3 12,2 OZO 12,2 1013,1 84 -
01:15 6,8 4,3 10,8 ZZO 17,2 1013,1 84 -
01:21 6,8 4,3 17,7 OZO 25,6 1013,1 84 -
01:25 6,8 4,3 10,8 Oosten 18,0 1013,1 84 -
01:31 6,8 4,3 15,4 ZO 15,4 1013,1 84 -
01:35 6,7 4,2 17,2 ZO 17,2 1012,8 84 -
01:41 6,7 4,2 14,0 ZO 14,0 1012,8 84 -
01:45 6,7 4,4 21,6 ZO 21,6 1012,8 85 -
01:51 6,6 4,3 21,2 Zuiden 21,2 1012,8 85 -
01:55 6,6 4,3 24,1 ZO 24,1 1012,1 85 -
02:01 6,5 4,2 18,3 ZO 25,6 1012,1 85 -
02:05 6,5 4,2 24,5 ZO 24,5 1012,1 85 -
02:11 6,4 4,1 13,4 ZO 13,4 1012,1 85 -
02:15 6,4 4,2 15,1 ZO 15,1 1012,1 86 -
02:21 6,4 4,2 12,6 ZO 14,8 1012,1 86 -
02:25 6,4 4,2 9,3 ZO 16,3 1012,1 86 -
02:31 6,4 4,2 20,1 ZO 20,1 1012,1 86 -
02:35 6,4 4,2 12,6 OZO 18,3 1012,1 86 -
02:41 6,4 4,2 11,1 ZO 14,0 1012,1 86 -
02:45 6,4 4,2 13,7 ZZO 14,8 1012,1 86 -
02:51 6,4 4,2 15,1 ZO 15,1 1012,1 86 -
02:55 6,4 4,2 19,1 ZO 19,1 1011,7 86 -
03:02 6,4 4,2 28,0 ZO 28,0 1011,7 86 -
03:06 6,5 4,3 25,3 ZO 25,3 1011,7 86 -
03:10 6,5 4,3 19,1 ZZO 19,1 1011,7 86 -
03:16 6,5 4,3 16,3 ZO 16,3 1011,7 86 -
03:20 6,5 4,3 19,1 ZZO 19,1 1011,7 86 -
03:26 6,6 4,4 20,9 ZZO 20,9 1011,7 86 -
03:30 6,6 4,4 15,1 ZO 15,1 1011,7 86 -
03:36 6,6 4,4 20,1 ZO 20,1 1011,4 86 -
03:40 6,7 4,5 13,0 ZO 13,0 1011,4 86 -
03:46 6,6 4,4 17,2 ZO 19,5 1011,4 86 -
03:50 6,6 4,4 21,2 Zuiden 21,2 1011,4 86 -
03:56 6,6 4,4 13,7 ZO 13,7 1011,4 86 -
04:00 6,6 4,4 18,0 ZO 18,0 1011,4 86 -
04:06 6,6 4,4 26,7 ZZO 26,7 1011,4 86 -
04:10 6,7 4,5 15,4 ZZO 15,4 1011,4 86 -
04:16 6,6 4,4 24,8 ZO 24,8 1011,1 86 0,80
04:20 6,6 4,4 9,3 OZO 9,3 1011,1 86 0,80
04:26 6,5 4,3 16,6 ZO 16,6 1011,1 86 0,80
04:30 6,5 4,5 6,1 OZO 18,0 1011,1 87 0,80
04:36 6,5 4,5 15,1 OZO 15,1 1011,1 87 1,50
04:40 6,5 4,5 17,7 ZZO 17,7 1011,1 87 1,50
04:46 6,5 4,5 26,2 ZO 26,2 1011,1 87 1,50
04:50 6,5 4,5 13,4 OZO 13,4 1011,1 87 1,50
04:56 6,5 4,5 9,3 ZZO 9,3 1010,7 87 1,50
05:00 6,5 4,7 11,1 Zuiden 11,1 1010,7 88 1,50
05:06 6,5 4,7 8,7 ZW 8,7 1010,7 88 1,50
05:10 6,5 4,7 16,3 ZO 16,3 1010,7 88 1,50
05:16 6,5 4,7 21,6 ZO 21,6 1010,7 88 0,80
05:20 6,5 4,7 13,7 ZZO 13,7 1010,7 88 0,80
05:26 6,5 4,7 21,2 ZO 21,2 1010,7 88 0,80
05:30 6,4 4,6 14,3 ZZO 14,3 1010,7 88 1,50
05:36 6,4 4,6 21,6 ZO 21,6 1010,7 88 0,80
05:40 6,4 4,6 16,6 ZO 16,6 1010,7 88 0,80
05:46 6,4 4,6 8,7 Zuiden 8,7 1010,7 88 0,80
05:50 6,4 4,6 15,8 ZO 15,8 1010,7 88 0,80
05:56 6,4 4,7 12,6 ZZO 12,6 1010,7 89 0,80
06:00 6,4 4,7 13,7 ZZO 13,7 1010,7 89 0,80
06:06 6,4 4,7 17,7 ZZO 22,4 1010,7 89 0,80
06:10 6,4 4,7 6,1 OZO 6,1 1010,7 89 0,80
06:16 6,4 4,7 16,3 ZZO 16,3 1010,4 89 0,80
06:20 6,4 4,7 14,8 ZO 14,8 1010,4 89 0,80
06:26 6,4 4,7 20,6 ZO 20,6 1010,4 89 -
06:30 6,4 4,7 15,1 ZO 15,1 1010,4 89 -
06:36 6,5 4,8 15,4 Zuiden 15,4 1010,4 89 -
06:40 6,5 4,8 10,5 ZZO 10,5 1010,4 89 -
06:46 6,5 4,8 15,4 ZO 15,4 1010,4 89 -
06:50 6,6 4,9 14,8 ZO 14,8 1010,4 89 -
06:56 6,6 4,9 8,7 ZO 8,7 1010,4 89 -
07:00 6,6 4,9 13,7 ZO 13,7 1010,4 89 -
07:06 6,6 4,9 13,7 Zuiden 13,7 1010,4 89 -
07:10 6,7 5,2 7,9 ZZO 7,9 1010,4 90 -
07:16 6,7 5,2 14,3 Oosten 14,3 1010,4 90 0,80
07:20 6,7 5,2 8,7 ZZO 8,7 1010,4 90 0,80
07:26 6,8 5,3 7,9 Zuiden 14,8 1010,4 90 0,80
07:30 6,8 5,3 11,1 ZZO 14,0 1010,4 90 0,80
07:36 6,8 5,3 9,0 Zuiden 9,0 1010,0 90 0,80
07:41 6,8 5,3 14,0 ZZO 14,0 1010,0 90 0,80
07:45 6,8 5,3 12,2 ZZO 15,4 1010,0 90 0,80
07:51 6,9 5,4 17,2 ZZO 17,2 1010,0 90 0,80
07:55 6,9 5,4 17,2 ZO 17,2 1010,0 90 0,80
08:01 6,9 5,4 6,1 ZO 12,2 1010,0 90 0,80
08:05 6,9 5,4 14,8 ZZO 14,8 1010,0 90 1,50
08:11 6,9 5,4 13,7 WZW 13,7 1010,0 90 0,80
08:16 6,9 5,4 10,5 ZO 10,5 1010,0 90 0,80
08:20 6,9 5,4 11,6 Zuiden 11,6 1010,0 90 0,80
08:26 7,0 5,5 9,7 OZO 12,6 1010,0 90 0,80
08:30 7,0 5,5 13,4 Zuiden 13,4 1010,0 90 0,80
08:36 7,1 5,6 18,7 ZO 18,7 1010,4 90 0,80
08:40 7,1 5,6 19,1 ZO 19,1 1010,4 90 0,80
08:45 7,1 5,6 10,8 ZO 18,7 1010,4 90 0,80
08:51 7,1 5,6 12,6 ZZO 12,6 1010,4 90 0,80
08:55 7,1 5,6 16,6 ZO 16,6 1010,4 90 0,80
09:01 7,1 5,6 16,9 ZO 16,9 1010,4 90 0,80
09:05 7,2 5,7 8,7 Zuiden 8,7 1010,4 90 -
09:10 7,2 5,7 12,2 ZO 12,2 1010,4 90 -
09:16 7,2 5,7 6,1 ZO 6,1 1010,0 90 -
09:20 7,2 5,7 5,5 Zuiden 5,5 1010,0 90 -
09:26 7,2 5,7 12,2 Oosten 12,2 1010,0 90 -
09:30 7,3 5,8 14,8 ZO 14,8 1010,0 90 -
09:36 7,3 5,8 11,6 ZZO 11,6 1010,0 90 -
09:40 7,3 5,8 7,6 ZZO 7,6 1010,0 90 -
09:46 7,4 5,9 9,7 Zuiden 9,7 1010,0 90 -
09:50 7,4 5,9 7,6 Zuiden 7,6 1010,0 90 -
09:56 7,4 5,9 13,7 ZZO 18,3 1010,0 90 -
10:00 7,4 5,9 7,2 ZZO 7,2 1010,0 90 -
10:06 7,4 5,9 16,6 ZZW 16,6 1010,0 90 -
10:10 7,5 6,0 15,8 Zuiden 15,8 1010,0 90 -
10:16 7,5 6,0 12,6 ZZO 12,6 1010,0 90 -
10:21 7,5 6,0 9,3 Zuiden 9,3 1010,0 90 -
10:25 7,5 6,0 12,2 Zuiden 15,4 1010,0 90 -
10:31 7,6 6,1 10,8 Zuiden 14,8 1010,0 90 -
10:35 7,6 6,1 10,8 ZO 14,8 1010,0 90 -
10:41 7,6 6,1 12,2 ZZO 12,2 1010,0 90 -
10:45 7,7 6,2 12,6 ZZO 19,1 1010,0 90 -
10:51 7,7 6,2 10,8 Oosten 27,4 1010,0 90 -
10:55 7,8 6,3 20,6 Zuiden 20,6 1010,0 90 -
11:01 7,8 6,3 9,3 ZO 9,7 1010,0 90 -
11:05 7,8 6,3 11,6 ZO 13,4 1010,0 90 -
11:11 7,8 6,3 13,4 ZO 13,4 1010,0 90 -
11:15 7,8 6,3 8,2 ZO 13,7 1010,0 90 0,50
11:21 7,8 6,3 10,8 ZZO 10,8 1010,0 90 0,50
11:26 7,9 6,4 9,7 ZZO 19,5 1010,0 90 0,50
11:30 7,9 6,4 11,1 ZO 11,1 1010,0 90 0,50
11:36 7,9 6,4 11,6 OZO 11,6 1009,7 90 0,50
11:40 7,9 6,4 17,2 ZO 17,2 1009,7 90 0,50
11:46 7,9 6,4 11,1 ZO 11,1 1009,7 90 0,50
11:50 7,9 6,4 10,1 ZO 10,1 1009,7 90 0,50
11:56 8,0 6,5 7,2 ZZO 7,2 1009,4 90 0,50
12:00 8,0 6,5 8,7 ZO 8,7 1009,4 90 0,50
12:06 8,1 6,6 9,3 ZZO 9,3 1009,4 90 0,50
12:10 8,1 6,6 11,9 ZZO 11,9 1009,4 90 -
12:16 8,2 6,7 12,6 ZO 12,6 1009,4 90 -
12:20 8,2 6,5 7,6 ZO 7,6 1009,4 89 -
12:26 8,3 6,6 14,8 OZO 14,8 1009,4 89 -
12:30 8,3 6,6 11,1 ZO 11,1 1009,4 89 -
12:36 8,4 6,7 9,0 ZZO 9,0 1008,7 89 -
12:40 8,4 6,7 4,7 OZO 4,7 1008,7 89 -
12:46 8,5 6,8 9,0 ZZO 9,0 1008,7 89 -
12:50 8,5 6,8 6,9 ZO 6,9 1008,7 89 -
12:56 8,6 6,9 13,4 ZO 14,3 1008,7 89 -
13:00 8,5 6,6 14,0 ZO 14,0 1008,7 88 -
13:06 8,5 6,6 13,4 ZZO 13,4 1008,7 88 -
13:10 8,5 6,6 12,6 ZO 12,6 1008,7 88 -
13:16 8,6 6,7 14,8 ZO 14,8 1008,7 88 -
13:20 8,6 6,7 9,0 Zuiden 9,0 1008,7 88 -
13:26 8,6 6,7 18,0 ZO 18,0 1008,7 88 -
13:30 8,6 6,7 19,1 ZZO 19,1 1008,7 88 -
13:36 8,7 6,7 7,2 ONO 7,2 1008,4 87 -
13:40 8,6 6,6 13,7 Zuiden 13,7 1008,4 87 -
13:46 8,6 6,6 9,7 Zuiden 9,7 1008,4 87 -

Download your copy of this data-set  here

Our weather-data as stored at Weather Underground. Script ontwikkeld door Jim McMurry. Aangepast voor de template door Leuven-Template.eu